sensor_id;sensor_type;location;lat;lon;timestamp;pressure;altitude;pressure_sealevel;temperature;humidity
63739;BME280;68816;45.558;10.070;2023-09-12T00:00:36;99771.97;;;25.48;57.73
63739;BME280;68816;45.558;10.070;2023-09-12T00:03:02;99770.19;;;25.43;58.46
63739;BME280;68816;45.558;10.070;2023-09-12T00:05:28;99769.34;;;25.43;57.97
63739;BME280;68816;45.558;10.070;2023-09-12T00:07:53;99771.25;;;25.30;58.48
63739;BME280;68816;45.558;10.070;2023-09-12T00:10:19;99771.13;;;25.18;58.81
63739;BME280;68816;45.558;10.070;2023-09-12T00:12:44;99769.28;;;25.22;58.81
63739;BME280;68816;45.558;10.070;2023-09-12T00:15:10;99756.00;;;25.14;59.53
63739;BME280;68816;45.558;10.070;2023-09-12T00:17:36;99764.09;;;25.24;59.16
63739;BME280;68816;45.558;10.070;2023-09-12T00:20:01;99761.16;;;25.12;59.83
63739;BME280;68816;45.558;10.070;2023-09-12T00:22:29;99764.72;;;25.00;60.16
63739;BME280;68816;45.558;10.070;2023-09-12T00:24:54;99760.41;;;24.94;60.41
63739;BME280;68816;45.558;10.070;2023-09-12T00:27:20;99753.91;;;24.93;60.97
63739;BME280;68816;45.558;10.070;2023-09-12T00:29:45;99757.16;;;25.13;59.99
63739;BME280;68816;45.558;10.070;2023-09-12T00:32:11;99762.38;;;25.02;60.92
63739;BME280;68816;45.558;10.070;2023-09-12T00:34:36;99748.28;;;24.76;61.69
63739;BME280;68816;45.558;10.070;2023-09-12T00:37:01;99752.09;;;24.89;61.32
63739;BME280;68816;45.558;10.070;2023-09-12T00:39:27;99748.06;;;24.99;61.39
63739;BME280;68816;45.558;10.070;2023-09-12T00:41:52;99752.09;;;24.98;61.52
63739;BME280;68816;45.558;10.070;2023-09-12T00:44:18;99757.16;;;24.66;62.73
63739;BME280;68816;45.558;10.070;2023-09-12T00:46:44;99747.00;;;24.65;62.37
63739;BME280;68816;45.558;10.070;2023-09-12T00:49:12;99740.81;;;24.80;61.57
63739;BME280;68816;45.558;10.070;2023-09-12T00:51:39;99746.16;;;24.73;61.70
63739;BME280;68816;45.558;10.070;2023-09-12T00:54:05;99739.84;;;24.68;62.04
63739;BME280;68816;45.558;10.070;2023-09-12T00:56:31;99736.97;;;24.76;61.67
63739;BME280;68816;45.558;10.070;2023-09-12T00:58:57;99733.34;;;24.67;62.08
63739;BME280;68816;45.558;10.070;2023-09-12T01:01:23;99729.47;;;24.34;62.87
63739;BME280;68816;45.558;10.070;2023-09-12T01:03:49;99723.47;;;24.27;63.03
63739;BME280;68816;45.558;10.070;2023-09-12T01:06:15;99723.13;;;24.37;62.64
63739;BME280;68816;45.558;10.070;2023-09-12T01:08:41;99732.28;;;24.25;62.78
63739;BME280;68816;45.558;10.070;2023-09-12T01:11:06;99726.78;;;24.29;62.18
63739;BME280;68816;45.558;10.070;2023-09-12T01:13:32;99724.63;;;24.26;62.27
63739;BME280;68816;45.558;10.070;2023-09-12T01:15:57;99728.16;;;24.23;62.30
63739;BME280;68816;45.558;10.070;2023-09-12T01:18:23;99728.44;;;24.12;63.00
63739;BME280;68816;45.558;10.070;2023-09-12T01:26:49;99726.28;;;24.01;62.96
63739;BME280;68816;45.558;10.070;2023-09-12T01:29:22;99734.09;;;23.95;63.39
63739;BME280;68816;45.558;10.070;2023-09-12T01:31:49;99737.25;;;24.02;63.10
63739;BME280;68816;45.558;10.070;2023-09-12T01:34:16;99737.59;;;24.01;63.17
63739;BME280;68816;45.558;10.070;2023-09-12T01:36:41;99737.59;;;23.92;63.40
63739;BME280;68816;45.558;10.070;2023-09-12T01:39:06;99731.09;;;24.00;63.35
63739;BME280;68816;45.558;10.070;2023-09-12T01:41:35;99731.44;;;24.07;63.38
63739;BME280;68816;45.558;10.070;2023-09-12T01:44:05;99737.41;;;24.06;63.32
63739;BME280;68816;45.558;10.070;2023-09-12T01:46:32;99727.44;;;24.08;63.22
63739;BME280;68816;45.558;10.070;2023-09-12T01:49:00;99737.41;;;24.14;62.80
63739;BME280;68816;45.558;10.070;2023-09-12T01:51:26;99731.44;;;24.07;63.00
63739;BME280;68816;45.558;10.070;2023-09-12T01:53:54;99729.13;;;23.92;63.42
63739;BME280;68816;45.558;10.070;2023-09-12T01:56:21;99731.44;;;23.90;63.46
63739;BME280;68816;45.558;10.070;2023-09-12T01:58:47;99735.78;;;24.05;63.26
63739;BME280;68816;45.558;10.070;2023-09-12T02:01:12;99732.59;;;24.06;63.18
63739;BME280;68816;45.558;10.070;2023-09-12T02:03:39;99732.13;;;23.70;64.16
63739;BME280;68816;45.558;10.070;2023-09-12T02:06:04;99732.78;;;23.84;63.85
63739;BME280;68816;45.558;10.070;2023-09-12T02:08:30;99734.75;;;24.01;63.53
63739;BME280;68816;45.558;10.070;2023-09-12T02:10:55;99741.09;;;23.98;63.62
63739;BME280;68816;45.558;10.070;2023-09-12T02:13:21;99741.25;;;23.93;63.84
63739;BME280;68816;45.558;10.070;2023-09-12T02:15:46;99737.75;;;23.79;64.33
63739;BME280;68816;45.558;10.070;2023-09-12T02:18:11;99740.44;;;23.92;63.90
63739;BME280;68816;45.558;10.070;2023-09-12T02:20:41;99743.25;;;23.75;64.44
63739;BME280;68816;45.558;10.070;2023-09-12T02:23:07;99747.91;;;23.80;64.33
63739;BME280;68816;45.558;10.070;2023-09-12T02:25:32;99751.72;;;23.92;64.26
63739;BME280;68816;45.558;10.070;2023-09-12T02:27:58;99745.22;;;23.83;64.69
63739;BME280;68816;45.558;10.070;2023-09-12T02:30:23;99743.41;;;23.96;64.31
63739;BME280;68816;45.558;10.070;2023-09-12T02:32:48;99748.72;;;24.06;64.29
63739;BME280;68816;45.558;10.070;2023-09-12T02:35:14;99740.59;;;23.87;64.73
63739;BME280;68816;45.558;10.070;2023-09-12T02:37:39;99751.22;;;23.90;65.20
63739;BME280;68816;45.558;10.070;2023-09-12T02:40:06;99748.06;;;24.00;64.55
63739;BME280;68816;45.558;10.070;2023-09-12T02:42:32;99752.72;;;23.96;64.96
63739;BME280;68816;45.558;10.070;2023-09-12T02:44:58;99743.59;;;23.99;64.89
63739;BME280;68816;45.558;10.070;2023-09-12T02:47:23;99747.06;;;24.05;64.83
63739;BME280;68816;45.558;10.070;2023-09-12T02:49:49;99742.41;;;23.83;65.81
63739;BME280;68816;45.558;10.070;2023-09-12T02:52:14;99744.91;;;23.85;66.12
63739;BME280;68816;45.558;10.070;2023-09-12T02:54:39;99735.63;;;23.93;65.90
63739;BME280;68816;45.558;10.070;2023-09-12T02:57:05;99747.41;;;24.03;65.71
63739;BME280;68816;45.558;10.070;2023-09-12T02:59:31;99738.44;;;24.10;65.63
63739;BME280;68816;45.558;10.070;2023-09-12T03:01:56;99732.28;;;23.91;66.49
63739;BME280;68816;45.558;10.070;2023-09-12T03:04:24;99743.56;;;23.91;66.42
63739;BME280;68816;45.558;10.070;2023-09-12T03:06:50;99739.09;;;23.98;66.44
63739;BME280;68816;45.558;10.070;2023-09-12T03:09:15;99735.75;;;23.96;66.39
63739;BME280;68816;45.558;10.070;2023-09-12T03:11:43;99742.75;;;23.99;66.50
63739;BME280;68816;45.558;10.070;2023-09-12T03:14:09;99743.25;;;23.75;67.25
63739;BME280;68816;45.558;10.070;2023-09-12T03:16:34;99740.25;;;23.80;67.15
63739;BME280;68816;45.558;10.070;2023-09-12T03:19:01;99729.44;;;23.65;67.53
63739;BME280;68816;45.558;10.070;2023-09-12T03:21:27;99737.34;;;23.46;68.44
63739;BME280;68816;45.558;10.070;2023-09-12T03:23:53;99733.91;;;23.49;68.23
63739;BME280;68816;45.558;10.070;2023-09-12T03:26:18;99734.69;;;23.41;68.45
63739;BME280;68816;45.558;10.070;2023-09-12T03:28:43;99721.78;;;23.57;68.13
63739;BME280;68816;45.558;10.070;2023-09-12T03:31:13;99726.28;;;23.58;67.81
63739;BME280;68816;45.558;10.070;2023-09-12T03:33:40;99723.78;;;23.65;67.61
63739;BME280;68816;45.558;10.070;2023-09-12T03:36:06;99711.16;;;23.54;67.40
63739;BME280;68816;45.558;10.070;2023-09-12T03:38:33;99722.47;;;23.71;66.24
63739;BME280;68816;45.558;10.070;2023-09-12T03:40:59;99727.94;;;23.67;66.23
63739;BME280;68816;45.558;10.070;2023-09-12T03:43:24;99729.69;;;23.38;67.25
63739;BME280;68816;45.558;10.070;2023-09-12T03:45:50;99730.03;;;23.45;67.01
63739;BME280;68816;45.558;10.070;2023-09-12T03:48:15;99731.00;;;23.31;67.04
63739;BME280;68816;45.558;10.070;2023-09-12T03:50:41;99728.19;;;23.23;67.21
63739;BME280;68816;45.558;10.070;2023-09-12T03:53:06;99728.34;;;23.26;66.52
63739;BME280;68816;45.558;10.070;2023-09-12T03:55:32;99724.69;;;23.26;66.46
63739;BME280;68816;45.558;10.070;2023-09-12T03:57:57;99724.78;;;23.04;67.15
63739;BME280;68816;45.558;10.070;2023-09-12T04:00:23;99731.63;;;23.11;66.93
63739;BME280;68816;45.558;10.070;2023-09-12T04:02:48;99728.09;;;22.97;67.33
63739;BME280;68816;45.558;10.070;2023-09-12T04:05:14;99734.50;;;22.89;67.54
63739;BME280;68816;45.558;10.070;2023-09-12T04:07:40;99732.41;;;22.95;67.37
63739;BME280;68816;45.558;10.070;2023-09-12T04:10:05;99723.78;;;23.00;67.60
63739;BME280;68816;45.558;10.070;2023-09-12T04:12:31;99728.59;;;22.99;67.52
63739;BME280;68816;45.558;10.070;2023-09-12T04:14:56;99728.88;;;22.89;67.75
63739;BME280;68816;45.558;10.070;2023-09-12T04:17:22;99734.66;;;22.84;67.88
63739;BME280;68816;45.558;10.070;2023-09-12T04:19:47;99737.84;;;22.91;67.95
63739;BME280;68816;45.558;10.070;2023-09-12T04:22:13;99738.38;;;23.02;67.49
63739;BME280;68816;45.558;10.070;2023-09-12T04:24:39;99739.69;;;22.96;67.32
63739;BME280;68816;45.558;10.070;2023-09-12T04:27:04;99735.91;;;23.00;67.38
63739;BME280;68816;45.558;10.070;2023-09-12T04:29:32;99744.16;;;22.88;67.58
63739;BME280;68816;45.558;10.070;2023-09-12T04:31:59;99746.00;;;22.92;67.54
63739;BME280;68816;45.558;10.070;2023-09-12T04:34:27;99748.13;;;22.87;67.77
63739;BME280;68816;45.558;10.070;2023-09-12T04:36:53;99743.25;;;22.79;68.09
63739;BME280;68816;45.558;10.070;2023-09-12T04:39:19;99747.13;;;22.91;67.82
63739;BME280;68816;45.558;10.070;2023-09-12T04:41:44;99748.19;;;23.04;67.36
63739;BME280;68816;45.558;10.070;2023-09-12T04:44:11;99749.78;;;22.88;68.13
63739;BME280;68816;45.558;10.070;2023-09-12T04:46:36;99762.25;;;22.96;67.87
63739;BME280;68816;45.558;10.070;2023-09-12T04:49:03;99762.44;;;22.99;67.46
63739;BME280;68816;45.558;10.070;2023-09-12T04:51:28;99761.28;;;23.00;67.82
63739;BME280;68816;45.558;10.070;2023-09-12T04:53:54;99759.44;;;22.96;67.74
63739;BME280;68816;45.558;10.070;2023-09-12T04:56:20;99760.47;;;23.08;67.60
63739;BME280;68816;45.558;10.070;2023-09-12T04:58:46;99767.78;;;23.09;67.60
63739;BME280;68816;45.558;10.070;2023-09-12T05:01:11;99763.66;;;23.15;67.58
63739;BME280;68816;45.558;10.070;2023-09-12T05:03:37;99769.09;;;23.03;67.98
63739;BME280;68816;45.558;10.070;2023-09-12T05:06:02;99765.75;;;23.01;68.51
63739;BME280;68816;45.558;10.070;2023-09-12T05:08:29;99769.91;;;23.04;68.79
63739;BME280;68816;45.558;10.070;2023-09-12T05:10:54;99766.47;;;23.15;68.88
63739;BME280;68816;45.558;10.070;2023-09-12T05:13:20;99773.94;;;23.11;69.73
63739;BME280;68816;45.558;10.070;2023-09-12T05:15:46;99773.25;;;23.06;69.91
63739;BME280;68816;45.558;10.070;2023-09-12T05:18:12;99776.78;;;23.11;69.89
63739;BME280;68816;45.558;10.070;2023-09-12T05:20:37;99786.63;;;23.31;69.48
63739;BME280;68816;45.558;10.070;2023-09-12T05:23:03;99785.78;;;23.30;69.77
63739;BME280;68816;45.558;10.070;2023-09-12T05:25:29;99788.31;;;23.41;69.67
63739;BME280;68816;45.558;10.070;2023-09-12T05:27:55;99789.13;;;23.32;69.96
63739;BME280;68816;45.558;10.070;2023-09-12T05:30:21;99796.09;;;23.35;70.36
63739;BME280;68816;45.558;10.070;2023-09-12T05:32:47;99791.63;;;23.43;69.85
63739;BME280;68816;45.558;10.070;2023-09-12T05:35:12;99791.50;;;23.48;69.88
63739;BME280;68816;45.558;10.070;2023-09-12T05:37:38;99798.34;;;23.47;70.21
63739;BME280;68816;45.558;10.070;2023-09-12T05:40:04;99806.34;;;23.62;70.00
63739;BME280;68816;45.558;10.070;2023-09-12T05:42:29;99798.56;;;23.85;68.19
63739;BME280;68816;45.558;10.070;2023-09-12T05:44:55;99800.09;;;23.99;67.55
63739;BME280;68816;45.558;10.070;2023-09-12T05:47:21;99803.56;;;23.96;68.77
63739;BME280;68816;45.558;10.070;2023-09-12T05:49:47;99801.06;;;23.95;68.42
63739;BME280;68816;45.558;10.070;2023-09-12T05:52:13;99795.91;;;24.05;66.97
63739;BME280;68816;45.558;10.070;2023-09-12T05:54:42;99803.06;;;24.11;68.23
63739;BME280;68816;45.558;10.070;2023-09-12T05:57:08;99801.72;;;24.17;67.77
63739;BME280;68816;45.558;10.070;2023-09-12T05:59:37;99797.63;;;24.32;66.82
63739;BME280;68816;45.558;10.070;2023-09-12T06:02:04;99795.13;;;24.39;66.01
63739;BME280;68816;45.558;10.070;2023-09-12T06:04:31;99789.44;;;24.48;66.04
63739;BME280;68816;45.558;10.070;2023-09-12T06:06:56;99792.28;;;24.48;65.74
63739;BME280;68816;45.558;10.070;2023-09-12T06:09:22;99795.75;;;24.62;64.22
63739;BME280;68816;45.558;10.070;2023-09-12T06:11:47;99788.56;;;24.73;64.09
63739;BME280;68816;45.558;10.070;2023-09-12T06:14:13;99792.38;;;24.77;63.78
63739;BME280;68816;45.558;10.070;2023-09-12T06:16:38;99798.22;;;24.72;63.20
63739;BME280;68816;45.558;10.070;2023-09-12T06:19:04;99796.19;;;24.81;62.68
63739;BME280;68816;45.558;10.070;2023-09-12T06:21:29;99806.84;;;24.84;62.09
63739;BME280;68816;45.558;10.070;2023-09-12T06:24:11;99810.34;;;24.90;61.96
63739;BME280;68816;45.558;10.070;2023-09-12T06:26:38;99803.22;;;24.92;61.97
63739;BME280;68816;45.558;10.070;2023-09-12T06:29:04;99809.53;;;24.89;62.29
63739;BME280;68816;45.558;10.070;2023-09-12T06:31:30;99805.84;;;24.98;62.60
63739;BME280;68816;45.558;10.070;2023-09-12T06:33:55;99815.69;;;24.91;63.72
63739;BME280;68816;45.558;10.070;2023-09-12T06:36:22;99816.34;;;24.88;64.36
63739;BME280;68816;45.558;10.070;2023-09-12T06:38:49;99813.81;;;25.04;64.33
63739;BME280;68816;45.558;10.070;2023-09-12T06:41:14;99812.81;;;25.09;64.47
63739;BME280;68816;45.558;10.070;2023-09-12T06:43:40;99811.72;;;25.22;63.92
63739;BME280;68816;45.558;10.070;2023-09-12T06:46:06;99814.41;;;25.27;63.01
63739;BME280;68816;45.558;10.070;2023-09-12T06:48:31;99815.69;;;25.38;62.10
63739;BME280;68816;45.558;10.070;2023-09-12T06:50:57;99805.19;;;25.39;63.72
63739;BME280;68816;45.558;10.070;2023-09-12T06:53:22;99809.13;;;25.46;62.42
63739;BME280;68816;45.558;10.070;2023-09-12T06:55:48;99815.91;;;25.54;62.88
63739;BME280;68816;45.558;10.070;2023-09-12T06:58:13;99817.56;;;25.63;64.98
63739;BME280;68816;45.558;10.070;2023-09-12T07:00:38;99818.75;;;25.62;63.75
63739;BME280;68816;45.558;10.070;2023-09-12T07:03:04;99823.22;;;25.63;62.19
63739;BME280;68816;45.558;10.070;2023-09-12T07:05:29;99817.72;;;25.67;63.36
63739;BME280;68816;45.558;10.070;2023-09-12T07:07:55;99820.66;;;25.79;62.45
63739;BME280;68816;45.558;10.070;2023-09-12T07:10:21;99829.97;;;25.80;61.78
63739;BME280;68816;45.558;10.070;2023-09-12T07:12:46;99821.38;;;25.97;62.27
63739;BME280;68816;45.558;10.070;2023-09-12T07:15:12;99828.81;;;26.01;62.30
63739;BME280;68816;45.558;10.070;2023-09-12T07:17:38;99831.75;;;26.13;62.23
63739;BME280;68816;45.558;10.070;2023-09-12T07:20:04;99833.00;;;26.25;62.20
63739;BME280;68816;45.558;10.070;2023-09-12T07:22:30;99831.97;;;26.29;62.42
63739;BME280;68816;45.558;10.070;2023-09-12T07:24:55;99830.66;;;26.47;60.75
63739;BME280;68816;45.558;10.070;2023-09-12T07:27:20;99837.06;;;26.56;61.29
63739;BME280;68816;45.558;10.070;2023-09-12T07:29:46;99838.66;;;26.66;60.69
63739;BME280;68816;45.558;10.070;2023-09-12T07:32:11;99845.63;;;26.69;60.48
63739;BME280;68816;45.558;10.070;2023-09-12T07:34:37;99834.94;;;26.86;57.42
63739;BME280;68816;45.558;10.070;2023-09-12T07:37:03;99846.25;;;26.95;57.64
63739;BME280;68816;45.558;10.070;2023-09-12T07:39:29;99838.94;;;27.06;57.80
63739;BME280;68816;45.558;10.070;2023-09-12T07:41:54;99843.00;;;27.29;57.33
63739;BME280;68816;45.558;10.070;2023-09-12T07:44:20;99832.34;;;27.26;57.07
63739;BME280;68816;45.558;10.070;2023-09-12T07:46:46;99843.84;;;27.30;55.58
63739;BME280;68816;45.558;10.070;2023-09-12T07:49:11;99843.28;;;27.49;56.18
63739;BME280;68816;45.558;10.070;2023-09-12T07:51:37;99843.03;;;27.42;55.70
63739;BME280;68816;45.558;10.070;2023-09-12T07:54:02;99846.94;;;27.37;55.26
63739;BME280;68816;45.558;10.070;2023-09-12T07:56:28;99833.13;;;27.15;54.19
63739;BME280;68816;45.558;10.070;2023-09-12T07:58:54;99852.41;;;27.09;54.60
63739;BME280;68816;45.558;10.070;2023-09-12T08:01:21;99851.19;;;26.98;55.29
63739;BME280;68816;45.558;10.070;2023-09-12T08:03:46;99861.09;;;27.25;54.35
63739;BME280;68816;45.558;10.070;2023-09-12T08:06:12;99868.13;;;26.94;53.00
63739;BME280;68816;45.558;10.070;2023-09-12T08:08:38;99863.69;;;27.18;52.60
63739;BME280;68816;45.558;10.070;2023-09-12T08:11:03;99866.28;;;27.23;52.17
63739;BME280;68816;45.558;10.070;2023-09-12T08:13:30;99859.22;;;27.41;51.00
63739;BME280;68816;45.558;10.070;2023-09-12T08:15:56;99860.94;;;27.54;51.28
63739;BME280;68816;45.558;10.070;2023-09-12T08:18:26;99868.41;;;27.71;51.50
63739;BME280;68816;45.558;10.070;2023-09-12T08:20:51;99861.50;;;27.84;51.22
63739;BME280;68816;45.558;10.070;2023-09-12T08:23:17;99864.84;;;27.86;50.12
63739;BME280;68816;45.558;10.070;2023-09-12T08:25:42;99866.03;;;27.73;52.14
63739;BME280;68816;45.558;10.070;2023-09-12T08:28:08;99871.69;;;27.73;53.11
63739;BME280;68816;45.558;10.070;2023-09-12T08:30:33;99867.94;;;27.81;52.31
63739;BME280;68816;45.558;10.070;2023-09-12T08:32:59;99863.66;;;27.75;52.01
63739;BME280;68816;45.558;10.070;2023-09-12T08:35:24;99866.50;;;27.87;51.71
63739;BME280;68816;45.558;10.070;2023-09-12T08:37:52;99859.63;;;27.88;50.28
63739;BME280;68816;45.558;10.070;2023-09-12T08:40:17;99854.19;;;27.95;50.87
63739;BME280;68816;45.558;10.070;2023-09-12T08:42:44;99857.03;;;27.95;50.46
63739;BME280;68816;45.558;10.070;2023-09-12T08:45:12;99858.91;;;28.03;49.56
63739;BME280;68816;45.558;10.070;2023-09-12T08:47:49;99859.00;;;28.31;49.40
63739;BME280;68816;45.558;10.070;2023-09-12T08:50:15;99859.53;;;28.49;48.05
63739;BME280;68816;45.558;10.070;2023-09-12T08:52:45;99862.25;;;28.57;48.03
63739;BME280;68816;45.558;10.070;2023-09-12T08:55:11;99853.25;;;28.83;47.27
63739;BME280;68816;45.558;10.070;2023-09-12T08:57:48;99853.09;;;28.76;47.76
63739;BME280;68816;45.558;10.070;2023-09-12T09:00:15;99864.53;;;29.08;46.32
63739;BME280;68816;45.558;10.070;2023-09-12T09:02:42;99856.94;;;29.12;46.13
63739;BME280;68816;45.558;10.070;2023-09-12T09:05:10;99863.13;;;29.02;46.86
63739;BME280;68816;45.558;10.070;2023-09-12T09:07:41;99854.44;;;28.94;47.65
63739;BME280;68816;45.558;10.070;2023-09-12T09:10:09;99845.75;;;28.91;47.98
63739;BME280;68816;45.558;10.070;2023-09-12T09:12:35;99848.31;;;28.80;47.59
63739;BME280;68816;45.558;10.070;2023-09-12T09:17:49;99847.78;;;29.65;45.71
63739;BME280;68816;45.558;10.070;2023-09-12T09:20:31;99852.38;;;29.86;45.26
63739;BME280;68816;45.558;10.070;2023-09-12T09:22:57;99849.16;;;29.71;45.79
63739;BME280;68816;45.558;10.070;2023-09-12T09:25:23;99854.97;;;29.75;46.14
63739;BME280;68816;45.558;10.070;2023-09-12T09:27:48;99852.84;;;29.72;45.67
63739;BME280;68816;45.558;10.070;2023-09-12T09:30:14;99859.59;;;29.64;45.87
63739;BME280;68816;45.558;10.070;2023-09-12T09:32:39;99858.19;;;29.73;46.33
63739;BME280;68816;45.558;10.070;2023-09-12T09:35:06;99853.78;;;29.92;45.51
63739;BME280;68816;45.558;10.070;2023-09-12T09:37:32;99856.97;;;30.06;45.69
63739;BME280;68816;45.558;10.070;2023-09-12T09:39:58;99852.75;;;29.84;45.27
63739;BME280;68816;45.558;10.070;2023-09-12T09:42:23;99844.53;;;30.14;45.33
63739;BME280;68816;45.558;10.070;2023-09-12T09:44:49;99847.44;;;29.98;45.41
63739;BME280;68816;45.558;10.070;2023-09-12T09:47:15;99849.97;;;30.38;44.04
63739;BME280;68816;45.558;10.070;2023-09-12T09:49:40;99843.22;;;30.11;44.82
63739;BME280;68816;45.558;10.070;2023-09-12T09:52:06;99852.38;;;29.86;45.26
63739;BME280;68816;45.558;10.070;2023-09-12T09:54:32;99842.44;;;29.95;45.30
63739;BME280;68816;45.558;10.070;2023-09-12T09:56:58;99842.91;;;29.97;44.82
63739;BME280;68816;45.558;10.070;2023-09-12T09:59:25;99840.53;;;29.99;45.42
63739;BME280;68816;45.558;10.070;2023-09-12T10:01:56;99845.75;;;30.32;45.19
63739;BME280;68816;45.558;10.070;2023-09-12T10:04:23;99841.94;;;30.44;44.67
63739;BME280;68816;45.558;10.070;2023-09-12T10:06:49;99843.56;;;30.26;44.55
63739;BME280;68816;45.558;10.070;2023-09-12T10:09:15;99844.94;;;30.32;44.49
63739;BME280;68816;45.558;10.070;2023-09-12T10:11:43;99837.50;;;30.27;44.53
63739;BME280;68816;45.558;10.070;2023-09-12T10:14:11;99835.84;;;30.26;43.66
63739;BME280;68816;45.558;10.070;2023-09-12T10:17:01;99843.19;;;30.62;44.22
63739;BME280;68816;45.558;10.070;2023-09-12T10:19:32;99842.44;;;30.65;43.85
63739;BME280;68816;45.558;10.070;2023-09-12T10:24:45;99840.94;;;30.36;44.45
63739;BME280;68816;45.558;10.070;2023-09-12T10:27:13;99833.06;;;30.30;45.09
63739;BME280;68816;45.558;10.070;2023-09-12T10:29:39;99836.97;;;30.56;44.21
63739;BME280;68816;45.558;10.070;2023-09-12T10:32:05;99834.22;;;31.02;43.25
63739;BME280;68816;45.558;10.070;2023-09-12T10:34:32;99841.03;;;30.75;43.65
63739;BME280;68816;45.558;10.070;2023-09-12T10:36:58;99843.06;;;29.89;45.47
63739;BME280;68816;45.558;10.070;2023-09-12T10:39:31;99842.06;;;30.67;44.00
63739;BME280;68816;45.558;10.070;2023-09-12T10:41:58;99834.38;;;30.90;43.64
63739;BME280;68816;45.558;10.070;2023-09-12T10:44:24;99830.91;;;31.00;43.38
63739;BME280;68816;45.558;10.070;2023-09-12T10:46:51;99833.19;;;30.91;43.30
63739;BME280;68816;45.558;10.070;2023-09-12T10:49:19;99830.03;;;30.77;44.08
63739;BME280;68816;45.558;10.070;2023-09-12T10:51:47;99837.06;;;31.02;44.03
63739;BME280;68816;45.558;10.070;2023-09-12T10:54:14;99837.91;;;30.64;43.99
63739;BME280;68816;45.558;10.070;2023-09-12T10:56:40;99841.53;;;30.80;43.35
63739;BME280;68816;45.558;10.070;2023-09-12T11:01:51;99825.66;;;31.44;43.80
63739;BME280;68816;45.558;10.070;2023-09-12T11:06:53;99826.75;;;31.39;42.20
63739;BME280;68816;45.558;10.070;2023-09-12T11:09:23;99829.88;;;30.89;42.85
63739;BME280;68816;45.558;10.070;2023-09-12T11:14:20;99820.94;;;31.32;42.44
63739;BME280;68816;45.558;10.070;2023-09-12T11:19:46;99817.75;;;30.95;42.50
63739;BME280;68816;45.558;10.070;2023-09-12T11:24:47;99814.84;;;31.57;41.67
63739;BME280;68816;45.558;10.070;2023-09-12T11:27:13;99818.91;;;31.56;41.29
63739;BME280;68816;45.558;10.070;2023-09-12T11:29:39;99811.06;;;31.75;40.97
63739;BME280;68816;45.558;10.070;2023-09-12T11:32:06;99810.44;;;31.86;40.16
63739;BME280;68816;45.558;10.070;2023-09-12T11:34:41;99799.16;;;32.56;39.56
63739;BME280;68816;45.558;10.070;2023-09-12T11:37:07;99802.50;;;32.28;39.52
63739;BME280;68816;45.558;10.070;2023-09-12T11:39:34;99802.50;;;32.28;40.37
63739;BME280;68816;45.558;10.070;2023-09-12T11:42:02;99793.50;;;32.59;38.99
63739;BME280;68816;45.558;10.070;2023-09-12T11:44:28;99794.69;;;32.88;38.91
63739;BME280;68816;45.558;10.070;2023-09-12T11:46:55;99790.34;;;32.68;39.58
63739;BME280;68816;45.558;10.070;2023-09-12T11:49:23;99774.28;;;33.34;39.88
63739;BME280;68816;45.558;10.070;2023-09-12T11:51:53;99789.78;;;33.26;38.42
63739;BME280;68816;45.558;10.070;2023-09-12T11:54:29;99780.03;;;32.97;38.04
63739;BME280;68816;45.558;10.070;2023-09-12T11:56:54;99771.50;;;33.45;37.65
63739;BME280;68816;45.558;10.070;2023-09-12T11:59:31;99773.41;;;33.70;35.22
63739;BME280;68816;45.558;10.070;2023-09-12T12:01:56;99769.03;;;33.91;34.76
63739;BME280;68816;45.558;10.070;2023-09-12T12:04:23;99764.53;;;33.90;35.52
63739;BME280;68816;45.558;10.070;2023-09-12T12:06:51;99759.41;;;33.69;34.70
63739;BME280;68816;45.558;10.070;2023-09-12T12:09:18;99758.03;;;34.03;34.86
63739;BME280;68816;45.558;10.070;2023-09-12T12:11:48;99750.34;;;34.18;33.75
63739;BME280;68816;45.558;10.070;2023-09-12T12:14:15;99750.75;;;33.58;33.83
63739;BME280;68816;45.558;10.070;2023-09-12T12:16:42;99753.38;;;33.77;35.15
63739;BME280;68816;45.558;10.070;2023-09-12T12:19:08;99745.69;;;33.41;35.52
63739;BME280;68816;45.558;10.070;2023-09-12T12:21:35;99742.81;;;33.41;35.66
63739;BME280;68816;45.558;10.070;2023-09-12T12:24:01;99743.50;;;33.71;35.68
63739;BME280;68816;45.558;10.070;2023-09-12T12:26:28;99749.03;;;34.08;34.40
63739;BME280;68816;45.558;10.070;2023-09-12T12:28:53;99739.88;;;33.85;34.33
63739;BME280;68816;45.558;10.070;2023-09-12T12:31:19;99736.78;;;33.57;34.89
63739;BME280;68816;45.558;10.070;2023-09-12T12:33:49;99742.00;;;33.44;35.26
63739;BME280;68816;45.558;10.070;2023-09-12T12:36:14;99728.34;;;33.27;34.86
63739;BME280;68816;45.558;10.070;2023-09-12T12:38:40;99726.13;;;33.54;34.31
63739;BME280;68816;45.558;10.070;2023-09-12T12:41:09;99728.94;;;33.47;33.69
63739;BME280;68816;45.558;10.070;2023-09-12T12:43:34;99730.06;;;33.86;33.51
63739;BME280;68816;45.558;10.070;2023-09-12T12:46:01;99731.81;;;34.05;31.68
63739;BME280;68816;45.558;10.070;2023-09-12T12:48:34;99739.19;;;34.09;29.93
63739;BME280;68816;45.558;10.070;2023-09-12T12:51:21;99734.47;;;33.73;32.41
63739;BME280;68816;45.558;10.070;2023-09-12T12:53:55;99734.00;;;33.67;33.26
63739;BME280;68816;45.558;10.070;2023-09-12T12:56:27;99727.91;;;33.72;33.59
63739;BME280;68816;45.558;10.070;2023-09-12T12:58:58;99724.72;;;33.30;34.42
63739;BME280;68816;45.558;10.070;2023-09-12T13:01:25;99715.72;;;33.31;33.79
63739;BME280;68816;45.558;10.070;2023-09-12T13:03:51;99716.66;;;33.50;32.77
63739;BME280;68816;45.558;10.070;2023-09-12T13:06:17;99721.66;;;34.21;31.86
63739;BME280;68816;45.558;10.070;2023-09-12T13:08:45;99716.19;;;34.02;32.25
63739;BME280;68816;45.558;10.070;2023-09-12T13:11:13;99711.28;;;33.99;32.97